Time;durP1;ratioP1;P1;durP2;ratioP2;P2;SDS_P1;SDS_P2;PMS_P1;PMS_P2;Temp;Humidity;BMP_temperature;BMP_pressure;BME280_temperature;BME280_humidity;BME280_pressure;Samples;Min_cycle;Max_cycle;Signal;HPM_P1;HPM_P2
2022/05/11 00:03:48;;;;;;;15.95;8.45;;;;;;;14.63;63.02;99268.50;8187737;28;20039;-71
2022/05/11 00:07:49;;;;;;;15.90;8.38;;;;;;;14.68;63.20;99271.00;8172740;28;20051;-71
2022/05/11 00:11:50;;;;;;;19.23;9.38;;;;;;;14.69;63.21;99266.38;8187406;28;20058;-72
2022/05/11 00:15:51;;;;;;;18.00;8.18;;;;;;;14.68;63.01;99254.69;8174720;28;20047;-73
2022/05/11 00:19:52;;;;;;;18.60;8.90;;;;;;;14.69;63.36;99261.72;8170612;29;20052;-72
2022/05/11 00:23:53;;;;;;;18.73;8.60;;;;;;;14.82;63.25;99259.06;8175718;28;20059;-72
2022/05/11 00:27:56;;;;;;;18.75;8.45;;;;;;;14.89;63.09;99253.88;8167982;29;20048;-73
2022/05/11 00:31:57;;;;;;;22.05;8.43;;;;;;;14.94;63.08;99245.53;8169746;28;20095;-72
2022/05/11 00:35:58;;;;;;;16.85;8.40;;;;;;;15.05;62.63;99241.25;8182913;28;20296;-72
2022/05/11 00:39:59;;;;;;;17.67;7.93;;;;;;;15.15;62.80;99246.28;8191145;28;20098;-72
2022/05/11 00:44:05;;;;;;;19.25;8.13;;;;;;;15.16;63.00;99243.25;8175736;28;20039;-71
2022/05/11 00:52:59;;;;;;;18.38;7.53;;;;;;;15.23;62.44;99231.78;8194183;28;20102;-72
2022/05/11 00:57:03;;;;;;;18.63;8.05;;;;;;;15.27;62.12;99232.72;8178544;28;20071;-72
2022/05/11 01:01:04;;;;;;;14.80;8.30;;;;;;;15.21;62.62;99234.06;8191499;28;20392;-72
2022/05/11 01:05:08;;;;;;;14.23;7.70;;;;;;;15.20;62.61;99224.31;8178181;28;20171;-73
2022/05/11 01:09:10;;;;;;;12.32;7.88;;;;;;;15.26;62.29;99220.25;8193823;28;20043;-73
2022/05/11 01:13:13;;;;;;;16.85;7.15;;;;;;;15.34;62.15;99222.06;8201295;28;20091;-72
2022/05/11 01:17:14;;;;;;;22.30;8.60;;;;;;;15.26;62.38;99220.25;8166132;29;20118;-72
2022/05/11 01:21:16;;;;;;;19.38;8.50;;;;;;;15.04;63.86;99218.72;8159670;29;20139;-73
2022/05/11 01:25:17;;;;;;;19.15;8.50;;;;;;;14.95;63.62;99209.06;8142574;29;20051;-72
2022/05/11 01:29:18;;;;;;;17.98;8.85;;;;;;;14.82;64.16;99215.56;8147555;29;20127;-72
2022/05/11 01:33:22;;;;;;;17.90;8.98;;;;;;;14.75;64.19;99203.28;8155642;29;20055;-72
2022/05/11 01:37:23;;;;;;;26.60;8.90;;;;;;;14.75;64.10;99205.25;8160289;29;20444;-72
2022/05/11 01:41:30;;;;;;;16.65;9.15;;;;;;;14.59;64.97;99191.44;8147706;29;20048;-71
2022/05/11 01:45:31;;;;;;;17.90;9.30;;;;;;;14.62;64.99;99196.22;8152391;29;20060;-72
2022/05/11 01:49:32;;;;;;;15.73;8.63;;;;;;;14.64;64.84;99188.56;8183705;28;20050;-72
2022/05/11 01:53:33;;;;;;;20.80;9.60;;;;;;;14.68;64.85;99194.91;8182165;28;20056;-71
2022/05/11 01:57:35;;;;;;;17.63;9.88;;;;;;;14.69;64.64;99191.06;8172960;28;20054;-71
2022/05/11 02:01:41;;;;;;;17.08;9.43;;;;;;;14.69;64.86;99182.91;8176379;29;20490;-71
2022/05/11 02:10:06;;;;;;;27.52;8.95;;;;;;;14.62;65.00;99169.06;8136113;29;20040;-72
2022/05/11 02:14:07;;;;;;;20.50;9.38;;;;;;;14.56;65.43;99164.94;8135756;29;20051;-72
2022/05/11 02:18:08;;;;;;;23.77;9.68;;;;;;;14.54;65.60;99160.97;8120155;29;20051;-72
2022/05/11 02:22:09;;;;;;;17.80;9.38;;;;;;;14.49;65.81;99164.69;8134471;29;20055;-73
2022/05/11 02:26:13;;;;;;;19.10;9.93;;;;;;;14.41;66.38;99162.84;8102962;29;20512;-72
2022/05/11 02:30:23;;;;;;;20.75;9.60;;;;;;;14.39;66.19;99165.09;8119412;29;20048;-73
2022/05/11 02:38:48;;;;;;;15.32;9.25;;;;;;;14.32;66.67;99154.75;8072484;29;20053;-72
2022/05/11 02:42:49;;;;;;;22.10;9.80;;;;;;;14.24;66.87;99158.31;8072671;29;20129;-73
2022/05/11 02:46:50;;;;;;;23.85;9.80;;;;;;;14.24;66.90;99160.22;8135029;29;20091;-71
2022/05/11 02:50:56;;;;;;;19.67;10.18;;;;;;;14.24;66.81;99162.94;8166656;29;20051;-72
2022/05/11 02:54:57;;;;;;;16.95;9.77;;;;;;;14.25;66.71;99159.09;8165681;29;20436;-72
2022/05/11 02:58:59;;;;;;;18.45;9.88;;;;;;;14.29;66.28;99154.59;8168705;29;20060;-72
2022/05/11 03:03:02;;;;;;;23.90;10.60;;;;;;;14.28;66.45;99161.13;8162527;29;20169;-72
2022/05/11 03:07:03;;;;;;;15.65;10.20;;;;;;;14.24;66.88;99157.50;8165863;29;20484;-72
2022/05/11 03:11:05;;;;;;;24.65;9.75;;;;;;;14.23;66.54;99162.13;8150153;29;20480;-72
2022/05/11 03:15:08;;;;;;;16.85;9.80;;;;;;;14.23;66.43;99161.34;8171281;29;20036;-71
2022/05/11 03:19:09;;;;;;;18.48;9.40;;;;;;;14.19;66.42;99160.41;8217532;28;20393;-71
2022/05/11 03:23:10;;;;;;;16.77;9.27;;;;;;;14.16;66.55;99163.81;8169930;28;20048;-73
2022/05/11 03:27:11;;;;;;;18.52;9.15;;;;;;;14.12;66.78;99157.44;8188468;28;20049;-72
2022/05/11 03:31:12;;;;;;;21.50;9.48;;;;;;;14.04;67.46;99152.88;8183036;28;20048;-73
2022/05/11 03:35:13;;;;;;;17.30;9.88;;;;;;;13.98;68.00;99151.47;8194626;28;20071;-72
2022/05/11 03:39:15;;;;;;;22.90;10.43;;;;;;;13.95;68.44;99156.44;8176458;28;20067;-72
2022/05/11 03:43:16;;;;;;;16.17;10.13;;;;;;;13.93;68.70;99147.81;8158334;29;20040;-72
2022/05/11 03:47:17;;;;;;;16.25;9.30;;;;;;;13.91;69.13;99150.06;8176540;28;20047;-72
2022/05/11 03:51:18;;;;;;;18.38;10.60;;;;;;;13.89;69.05;99149.63;8183752;28;20529;-72
2022/05/11 03:55:20;;;;;;;22.13;10.27;;;;;;;13.86;69.33;99152.97;8176937;28;20054;-71
2022/05/11 03:59:21;;;;;;;19.38;10.10;;;;;;;13.86;69.12;99163.03;8181474;28;20047;-72
2022/05/11 04:03:22;;;;;;;19.38;9.70;;;;;;;13.84;69.46;99154.44;8175531;29;20078;-73
2022/05/11 04:07:23;;;;;;;29.05;10.63;;;;;;;13.83;69.41;99153.63;8173775;28;20048;-72
2022/05/11 04:11:25;;;;;;;40.53;10.98;;;;;;;13.80;69.29;99154.28;8185935;28;20062;-72
2022/05/11 04:15:26;;;;;;;18.30;10.10;;;;;;;13.77;69.52;99149.53;8197635;28;20514;-72
2022/05/11 04:19:27;;;;;;;16.10;8.75;;;;;;;13.81;69.25;99155.88;8175058;28;20051;-72
2022/05/11 04:23:28;;;;;;;16.55;9.57;;;;;;;13.85;68.99;99156.81;8178057;28;20407;-71
2022/05/11 04:27:29;;;;;;;20.52;9.18;;;;;;;13.88;69.09;99156.16;8172250;28;20043;-71
2022/05/11 04:31:30;;;;;;;16.27;9.27;;;;;;;14.03;68.66;99162.13;8169538;29;20047;-72
2022/05/11 04:35:31;;;;;;;18.45;8.80;;;;;;;14.14;68.29;99157.91;8175759;28;20054;-72
2022/05/11 04:39:32;;;;;;;14.73;8.90;;;;;;;14.23;68.46;99155.91;8172028;29;20051;-73
2022/05/11 04:43:33;;;;;;;14.65;8.90;;;;;;;14.42;67.29;99159.00;8169430;29;20579;-72
2022/05/11 04:47:34;;;;;;;19.85;8.52;;;;;;;14.60;66.80;99160.41;8175382;29;20069;-73
2022/05/11 04:51:35;;;;;;;18.55;8.95;;;;;;;14.78;66.40;99161.88;8169907;28;20067;-72
2022/05/11 04:55:37;;;;;;;20.10;8.65;;;;;;;14.92;65.86;99160.75;8169812;28;20094;-73
2022/05/11 04:59:41;;;;;;;14.00;8.60;;;;;;;15.06;65.46;99164.00;8184909;28;20055;-73
2022/05/11 05:03:42;;;;;;;16.60;9.23;;;;;;;15.17;65.19;99167.88;8169908;29;20055;-72
2022/05/11 05:07:43;;;;;;;20.60;8.82;;;;;;;15.26;64.96;99176.72;8186065;28;20060;-73
2022/05/11 05:11:44;;;;;;;19.08;9.00;;;;;;;15.34;64.98;99178.53;8188470;28;20102;-72
2022/05/11 05:15:45;;;;;;;15.82;9.05;;;;;;;15.41;65.05;99178.78;8171510;28;20051;-73
2022/05/11 05:19:47;;;;;;;19.98;8.65;;;;;;;15.54;65.25;99177.69;8211721;28;20152;-73
2022/05/11 05:23:49;;;;;;;20.80;9.13;;;;;;;15.75;65.08;99176.78;8181441;29;20464;-72
2022/05/11 05:27:51;;;;;;;19.65;8.73;;;;;;;15.99;64.25;99182.22;8180065;28;20416;-73
2022/05/11 05:31:51;;;;;;;21.25;8.45;;;;;;;16.27;64.20;99185.81;8185688;29;20055;-73
2022/05/11 05:35:52;;;;;;;15.65;8.25;;;;;;;16.50;63.73;99185.28;8179022;28;20050;-72
2022/05/11 05:39:53;;;;;;;16.63;8.57;;;;;;;16.69;63.79;99182.75;8184210;28;20393;-72
2022/05/11 05:43:55;;;;;;;17.35;7.63;;;;;;;16.85;63.29;99183.59;8182753;28;20048;-72
2022/05/11 05:47:56;;;;;;;18.25;6.80;;;;;;;17.09;62.48;99186.19;8169699;29;20070;-71
2022/05/11 05:52:02;;;;;;;18.95;7.28;;;;;;;17.35;62.04;99187.63;8182324;29;20369;-71
2022/05/11 05:56:03;;;;;;;16.00;6.60;;;;;;;17.54;61.89;99179.53;8238240;28;20053;-72
2022/05/11 06:00:05;;;;;;;20.55;6.70;;;;;;;17.65;61.33;99186.09;8239770;28;20042;-72
2022/05/11 06:04:07;;;;;;;20.25;6.60;;;;;;;17.64;61.07;99189.97;8243378;28;20047;-72
2022/05/11 06:08:08;;;;;;;17.20;6.97;;;;;;;17.61;61.48;99185.19;8232914;28;20057;-72
2022/05/11 06:12:11;;;;;;;15.40;7.50;;;;;;;17.52;61.56;99184.56;8233202;28;20043;-72
2022/05/11 06:16:15;;;;;;;13.32;6.45;;;;;;;17.40;62.40;99190.09;8234234;28;20046;-72
2022/05/11 06:20:16;;;;;;;13.32;6.45;;;;;;;17.43;62.63;99205.78;8231683;28;20537;-72
2022/05/11 06:24:18;;;;;;;12.68;7.47;;;;;;;17.58;62.60;99202.25;8230404;28;20043;-72
2022/05/11 06:28:19;;;;;;;15.35;7.05;;;;;;;17.76;62.12;99198.06;8176756;29;20408;-72
2022/05/11 06:32:22;;;;;;;17.02;7.03;;;;;;;18.15;61.57;99199.75;8172312;29;20047;-72
2022/05/11 06:36:23;;;;;;;14.30;6.78;;;;;;;18.59;60.21;99199.56;8171049;29;20114;-72
2022/05/11 06:40:25;;;;;;;14.73;6.40;;;;;;;19.02;58.88;99203.16;8173595;29;20598;-71
2022/05/11 06:44:25;;;;;;;12.25;5.55;;;;;;;19.46;57.52;99218.06;8171289;29;20084;-73
2022/05/11 06:48:26;;;;;;;10.85;6.15;;;;;;;19.59;56.37;99214.00;8180749;29;20438;-71
2022/05/11 06:52:27;;;;;;;10.73;5.80;;;;;;;19.78;56.69;99210.38;8176451;29;20146;-72
2022/05/11 07:00:48;;;;;;;9.65;6.05;;;;;;;20.09;55.36;99206.56;8177743;29;20040;-72
2022/05/11 07:04:49;;;;;;;14.07;6.45;;;;;;;20.12;54.23;99211.31;8192675;28;20047;-72
2022/05/11 07:08:50;;;;;;;11.15;5.75;;;;;;;20.15;54.50;99216.81;8171342;28;20102;-72
2022/05/11 07:12:51;;;;;;;9.00;5.15;;;;;;;20.31;55.04;99208.47;8193864;28;20082;-72
2022/05/11 07:16:52;;;;;;;14.07;5.60;;;;;;;20.52;54.76;99203.25;8216620;28;20130;-73
2022/05/11 07:20:53;;;;;;;10.60;5.53;;;;;;;20.71;55.14;99198.81;8202883;28;20051;-71
2022/05/11 07:24:54;;;;;;;13.90;5.40;;;;;;;20.77;54.00;99202.81;8200895;28;20467;-72
2022/05/11 07:28:55;;;;;;;11.32;5.57;;;;;;;20.95;53.91;99196.34;8199602;29;20495;-73
2022/05/11 07:32:57;;;;;;;11.98;5.40;;;;;;;21.02;52.52;99198.38;8202441;28;20102;-72
2022/05/11 07:36:58;;;;;;;11.25;5.70;;;;;;;21.02;52.21;99198.38;8201575;28;20055;-72
2022/05/11 07:40:59;;;;;;;19.73;6.05;;;;;;;20.96;53.84;99194.38;8202094;28;20538;-72
2022/05/11 07:45:01;;;;;;;9.85;5.50;;;;;;;20.85;53.67;99209.94;8201478;28;20047;-72
2022/05/11 07:49:05;;;;;;;17.80;5.78;;;;;;;20.80;54.17;99202.03;8201827;28;20054;-72
2022/05/11 07:53:06;;;;;;;12.27;5.80;;;;;;;21.04;53.14;99196.06;8200160;28;20163;-72
2022/05/11 08:01:27;;;;;;;8.13;5.15;;;;;;;21.43;49.67;99197.25;8172508;28;20055;-73
2022/05/11 08:05:30;;;;;;;8.98;5.20;;;;;;;21.65;49.73;99194.69;8179293;28;20567;-73
2022/05/11 08:09:32;;;;;;;9.73;5.25;;;;;;;21.83;48.16;99192.88;8197766;28;20039;-72
2022/05/11 08:13:32;;;;;;;11.73;5.35;;;;;;;21.88;47.76;99187.03;8213661;28;20059;-72
2022/05/11 08:17:35;;;;;;;13.00;4.97;;;;;;;22.00;48.30;99185.94;8199329;28;20047;-71
2022/05/11 08:21:36;;;;;;;10.93;5.35;;;;;;;22.11;48.04;99195.84;8199702;28;20047;-72
2022/05/11 08:25:39;;;;;;;14.05;5.45;;;;;;;22.40;47.43;99187.78;8192582;28;20063;-72
2022/05/11 08:34:00;;;;;;;7.45;5.03;;;;;;;22.48;47.84;99178.38;8210289;28;20051;-72
2022/05/11 08:38:00;;;;;;;17.23;5.95;;;;;;;22.65;47.54;99172.16;8213030;28;20562;-72
2022/05/11 08:42:02;;;;;;;14.40;5.70;;;;;;;22.87;47.18;99184.84;8199084;28;20070;-72
2022/05/11 08:46:38;;;;;;;11.38;4.82;;;;;;;23.06;47.57;99180.97;8211300;28;20063;-72
2022/05/11 08:50:43;;;;;;;7.70;5.18;;;;;;;23.17;46.17;99188.06;8198159;29;20046;-73
2022/05/11 08:54:50;;;;;;;10.52;5.88;;;;;;;23.15;45.06;99179.44;8197538;28;20487;-71
2022/05/11 08:58:52;;;;;;;8.02;5.82;;;;;;;23.25;46.06;99179.84;8197194;28;20075;-72
2022/05/11 09:03:05;;;;;;;8.38;4.93;;;;;;;23.32;46.04;99177.09;8197351;29;20126;-72
2022/05/11 09:07:09;;;;;;;8.65;5.22;;;;;;;23.50;45.18;99166.88;8210914;28;20106;-72
2022/05/11 09:11:14;;;;;;;10.90;4.85;;;;;;;23.66;44.31;99167.28;8197953;28;20511;-73
2022/05/11 09:15:15;;;;;;;7.43;5.22;;;;;;;23.86;44.76;99168.44;8209830;28;20044;-72
2022/05/11 09:19:22;;;;;;;11.75;5.10;;;;;;;24.10;44.44;99160.53;8197814;28;20091;-72
2022/05/11 09:23:39;;;;;;;15.05;4.65;;;;;;;24.23;43.36;99148.69;8198365;29;20407;-72
2022/05/11 09:27:40;;;;;;;10.05;5.03;;;;;;;24.29;42.53;99151.84;8196807;29;20110;-71
2022/05/11 09:31:41;;;;;;;8.20;4.88;;;;;;;24.55;42.00;99154.09;8201337;28;20090;-72
2022/05/11 09:35:44;;;;;;;7.70;4.90;;;;;;;24.63;41.79;99144.63;8204599;28;20053;-72
2022/05/11 09:40:07;;;;;;;87.78;7.43;;;;;;;24.73;40.78;99143.78;8201869;28;20062;-72
2022/05/11 09:44:23;;;;;;;7.88;4.95;;;;;;;25.00;41.50;99146.03;8200445;28;20055;-72
2022/05/11 09:48:33;;;;;;;12.30;4.75;;;;;;;24.80;40.81;99149.25;8204342;28;20061;-73
2022/05/11 09:52:35;;;;;;;7.82;4.60;;;;;;;24.86;40.79;99129.50;8204003;28;20474;-74
2022/05/11 09:56:38;;;;;;;8.68;4.38;;;;;;;25.04;39.75;99138.50;8183348;28;20052;-72
2022/05/11 10:00:42;;;;;;;6.35;4.72;;;;;;;24.89;40.64;99131.50;8209819;28;20063;-72
2022/05/11 10:04:50;;;;;;;10.27;4.55;;;;;;;24.78;40.81;99134.28;8189074;28;20087;-71
2022/05/11 10:08:52;;;;;;;11.70;4.60;;;;;;;24.85;40.72;99127.94;8193114;28;20043;-70
2022/05/11 10:12:56;;;;;;;6.97;4.70;;;;;;;25.03;40.89;99132.19;8197773;28;20051;-71
2022/05/11 10:22:02;;;;;;;8.95;4.97;;;;;;;25.40;39.63;99122.44;8195514;28;20043;-71
2022/05/11 10:26:13;;;;;;;6.20;4.32;;;;;;;25.48;40.01;99130.28;8137303;29;20111;-70
2022/05/11 10:30:23;;;;;;;10.07;4.22;;;;;;;25.39;39.23;99126.41;8137105;29;20084;-70
2022/05/11 10:34:44;;;;;;;11.65;4.72;;;;;;;25.19;39.59;99131.69;8136880;29;20080;-71
2022/05/11 10:39:04;;;;;;;5.00;4.10;;;;;;;25.09;39.28;99121.50;8136001;29;20059;-70
2022/05/11 10:43:21;;;;;;;8.65;4.10;;;;;;;25.35;39.78;99122.88;8135203;29;20075;-71
2022/05/11 10:47:43;;;;;;;10.30;4.28;;;;;;;25.49;40.21;99123.53;8137003;29;20131;-71
2022/05/11 10:51:50;;;;;;;8.55;4.10;;;;;;;25.83;39.50;99114.59;8135957;29;20135;-72
2022/05/11 10:56:17;;;;;;;7.10;4.15;;;;;;;26.24;38.35;99112.56;8166691;29;20511;-71
2022/05/11 11:00:22;;;;;;;8.32;4.43;;;;;;;25.97;38.26;99114.44;8199149;28;20055;-72
2022/05/11 11:04:45;;;;;;;9.20;4.47;;;;;;;25.78;38.66;99112.25;8199182;28;20043;-71
2022/05/11 11:09:01;;;;;;;9.45;4.10;;;;;;;25.38;37.69;99111.03;8199064;29;20040;-71
2022/05/11 11:13:30;;;;;;;12.73;3.90;;;;;;;25.04;37.06;99108.09;8198946;29;20043;-71
2022/05/11 11:17:32;;;;;;;5.10;3.80;;;;;;;25.06;38.12;99111.25;8198677;29;20058;-71
2022/05/11 11:21:33;;;;;;;9.60;4.43;;;;;;;25.23;37.87;99104.81;8182298;28;20058;-71
2022/05/11 11:25:53;;;;;;;7.43;4.47;;;;;;;25.46;37.96;99102.25;8166372;29;20047;-71
2022/05/11 11:30:16;;;;;;;10.82;4.10;;;;;;;25.90;37.39;99097.91;8196446;28;20082;-71
2022/05/11 11:34:19;;;;;;;5.10;3.92;;;;;;;26.30;37.74;99088.78;8199031;28;20067;-71
2022/05/11 11:38:29;;;;;;;11.23;4.10;;;;;;;26.62;37.32;99087.56;8180424;29;20059;-70
2022/05/11 11:42:37;;;;;;;8.43;4.07;;;;;;;26.32;34.89;99086.38;8201776;28;20102;-71
2022/05/11 11:46:40;;;;;;;7.47;3.97;;;;;;;26.18;37.44;99086.50;8201912;28;20538;-71
2022/05/11 11:50:50;;;;;;;12.07;4.20;;;;;;;25.97;37.26;99075.69;8216385;28;20486;-71
2022/05/11 11:54:52;;;;;;;11.50;4.40;;;;;;;25.97;38.56;99075.69;8201129;28;20479;-70
2022/05/11 11:59:25;;;;;;;12.40;4.32;;;;;;;25.83;36.96;99070.31;8201308;28;20152;-71
2022/05/11 12:03:32;;;;;;;5.28;3.97;;;;;;;25.59;38.17;99067.38;8201707;28;20051;-71
2022/05/11 12:16:13;;;;;;;8.85;4.72;;;;;;;25.81;38.91;99061.63;8182536;29;20051;-71
2022/05/11 12:20:19;;;;;;;5.43;3.85;;;;;;;26.29;38.59;99053.97;8200607;28;20043;-70
2022/05/11 12:24:26;;;;;;;9.40;3.80;;;;;;;26.63;36.55;99050.38;8214258;28;20055;-71
2022/05/11 12:28:42;;;;;;;7.28;3.95;;;;;;;26.68;36.05;99042.38;8200194;28;20407;-71
2022/05/11 12:32:53;;;;;;;6.32;3.97;;;;;;;26.60;35.48;99040.09;8199554;28;20050;-72
2022/05/11 12:36:55;;;;;;;6.45;3.80;;;;;;;26.75;36.07;99035.97;8192160;28;20102;-72
2022/05/11 12:40:56;;;;;;;10.25;3.85;;;;;;;26.94;35.96;99032.50;8195501;28;20077;-72
2022/05/11 12:45:01;;;;;;;9.30;3.55;;;;;;;26.86;35.25;99036.59;8211741;28;20039;-71
2022/05/11 12:49:03;;;;;;;9.50;4.22;;;;;;;26.92;35.75;99029.38;8212422;28;20051;-71
2022/05/11 12:53:17;;;;;;;5.88;4.00;;;;;;;26.89;34.56;99019.13;8198514;28;20062;-71
2022/05/11 12:57:18;;;;;;;13.85;3.97;;;;;;;27.10;35.38;99024.34;8211683;28;20074;-71
2022/05/11 13:01:22;;;;;;;8.35;3.78;;;;;;;27.08;34.89;99026.72;8194682;28;20066;-72
2022/05/11 13:05:23;;;;;;;6.70;3.85;;;;;;;27.05;34.91;99016.50;8196467;28;20047;-71
2022/05/11 13:09:54;;;;;;;9.15;3.80;;;;;;;27.21;35.84;99011.06;8148995;29;20047;-71
2022/05/11 13:13:57;;;;;;;5.97;3.97;;;;;;;27.47;35.33;99008.63;8191945;28;20047;-71
2022/05/11 13:17:58;;;;;;;6.53;3.90;;;;;;;27.37;34.27;99004.84;8178592;28;20496;-71
2022/05/11 13:22:01;;;;;;;9.50;3.97;;;;;;;27.62;35.01;98998.88;8192782;28;20071;-71
2022/05/11 13:26:25;;;;;;;14.80;4.47;;;;;;;27.95;33.93;98995.03;8180094;28;20058;-71
2022/05/11 13:30:29;;;;;;;7.38;3.80;;;;;;;28.19;32.92;98986.63;8100317;29;20135;-72
2022/05/11 13:34:37;;;;;;;5.00;3.78;;;;;;;29.42;30.88;98994.03;8096846;29;20057;-73
2022/05/11 13:38:48;;;;;;;4.73;3.70;;;;;;;30.02;31.10;98980.47;8098556;29;20053;-71
2022/05/11 13:42:49;;;;;;;11.10;3.42;;;;;;;31.73;29.20;98970.91;8099884;29;20300;-72
2022/05/11 13:51:27;;;;;;;6.90;3.88;;;;;;;33.52;26.83;98950.16;8125705;29;20056;-71
2022/05/11 13:55:56;;;;;;;7.00;3.80;;;;;;;34.36;25.06;98939.09;8085419;29;20107;-72
2022/05/11 14:00:12;;;;;;;4.72;2.70;;;;;;;34.03;24.23;98944.63;8070462;29;20063;-72
2022/05/11 14:04:18;;;;;;;7.07;3.00;;;;;;;33.41;23.81;98955.44;8056016;29;20128;-72
2022/05/11 14:08:19;;;;;;;6.10;3.00;;;;;;;33.27;24.20;98939.25;8148570;29;20408;-72
2022/05/11 14:12:22;;;;;;;7.85;2.95;;;;;;;34.39;23.60;98938.13;8132947;29;20071;-72
2022/05/11 14:16:26;;;;;;;5.75;3.03;;;;;;;34.11;22.54;98933.84;8144837;29;20052;-73
2022/05/11 14:20:27;;;;;;;5.22;2.80;;;;;;;35.10;22.80;98934.63;8164185;29;20051;-73
2022/05/11 14:24:31;;;;;;;4.65;3.10;;;;;;;35.96;21.92;98937.31;8127258;29;20052;-72
2022/05/11 14:28:36;;;;;;;3.63;3.05;;;;;;;35.84;21.81;98929.97;8153482;29;20052;-72
2022/05/11 14:32:43;;;;;;;21.42;3.63;;;;;;;35.74;22.00;98925.72;8158064;29;20700;-73
2022/05/11 14:36:47;;;;;;;5.07;2.80;;;;;;;36.89;21.29;98916.03;8174146;28;20566;-72
2022/05/11 14:40:48;;;;;;;6.20;3.00;;;;;;;36.62;21.03;98914.38;8200316;29;20082;-73
2022/05/11 14:44:49;;;;;;;5.72;3.15;;;;;;;36.93;20.47;98917.34;8203895;28;20106;-73
2022/05/11 14:48:53;;;;;;;6.60;2.88;;;;;;;37.62;20.43;98905.13;8200484;28;20055;-73
2022/05/11 14:52:56;;;;;;;6.75;3.20;;;;;;;37.03;20.47;98901.88;8207962;28;20058;-73
2022/05/11 15:05:38;;;;;;;10.15;3.30;;;;;;;36.46;21.45;98895.19;8205509;28;20043;-73
2022/05/11 15:09:39;;;;;;;6.10;3.25;;;;;;;36.36;21.80;98886.91;8235151;28;20047;-73
2022/05/11 15:13:44;;;;;;;5.40;2.85;;;;;;;36.23;22.57;98883.63;8222613;28;20472;-74
2022/05/11 15:17:45;;;;;;;5.88;2.83;;;;;;;35.34;22.74;98881.28;8202753;28;20054;-73
2022/05/11 15:21:46;;;;;;;9.05;3.25;;;;;;;34.23;24.61;98879.66;8182130;28;20047;-74
2022/05/11 15:25:48;;;;;;;7.13;3.38;;;;;;;33.43;25.58;98875.34;8202272;28;20526;-73
2022/05/11 15:29:49;;;;;;;8.80;3.58;;;;;;;32.97;25.43;98871.75;8200947;28;20047;-73
2022/05/11 15:33:50;;;;;;;4.78;3.55;;;;;;;33.01;25.36;98861.19;8202058;28;20158;-74
2022/05/11 15:37:52;;;;;;;5.97;3.00;;;;;;;33.04;25.29;98860.28;8211068;28;20051;-73
2022/05/11 15:41:56;;;;;;;8.23;3.50;;;;;;;33.41;25.47;98861.03;8167483;28;20050;-74
2022/05/11 15:45:57;;;;;;;9.85;3.65;;;;;;;33.21;25.74;98857.16;8202483;28;20488;-74
2022/05/11 15:49:58;;;;;;;11.23;3.30;;;;;;;32.41;25.47;98852.56;8200511;28;20142;-73
2022/05/11 15:54:00;;;;;;;7.65;3.28;;;;;;;32.88;25.24;98863.38;8198725;28;20062;-73
2022/05/11 15:58:00;;;;;;;10.45;3.38;;;;;;;32.73;25.64;98853.25;8215368;28;20051;-72
2022/05/11 16:02:05;;;;;;;4.80;3.20;;;;;;;32.56;25.93;98853.50;8176368;28;20044;-72
2022/05/11 16:06:08;;;;;;;3.78;3.28;;;;;;;32.23;25.83;98853.28;8156655;29;20055;-72
2022/05/11 16:10:09;;;;;;;6.32;3.55;;;;;;;31.58;26.59;98841.47;8176679;28;20427;-72
2022/05/11 16:14:14;;;;;;;7.15;3.17;;;;;;;31.12;26.89;98843.94;8171786;29;20495;-72
2022/05/11 16:22:39;;;;;;;7.00;3.60;;;;;;;29.90;28.47;98836.44;8196660;29;20059;-72
2022/05/11 16:26:42;;;;;;;8.73;3.90;;;;;;;29.61;29.38;98834.50;8167725;29;20055;-72
2022/05/11 16:30:43;;;;;;;7.95;3.78;;;;;;;29.00;30.31;98833.88;8214382;28;20051;-73
2022/05/11 16:34:52;;;;;;;7.65;3.90;;;;;;;28.60;31.11;98833.31;8214127;28;20183;-73
2022/05/11 16:38:53;;;;;;;5.53;4.05;;;;;;;28.34;31.48;98832.38;8204144;28;20243;-73
2022/05/11 16:42:54;;;;;;;6.93;3.88;;;;;;;28.10;32.25;98824.19;8201285;28;20055;-73
2022/05/11 16:46:56;;;;;;;8.15;4.32;;;;;;;27.86;32.73;98820.00;8201103;28;20059;-73
2022/05/11 16:50:57;;;;;;;9.02;4.32;;;;;;;27.60;33.15;98818.22;8200589;28;20055;-73
2022/05/11 16:54:58;;;;;;;10.27;4.35;;;;;;;27.28;33.65;98808.53;8201095;28;20051;-73
2022/05/11 16:58:59;;;;;;;6.25;4.10;;;;;;;27.19;34.03;98811.13;8200545;28;20057;-74
2022/05/11 17:03:08;;;;;;;7.43;4.95;;;;;;;27.05;34.62;98805.88;8182607;29;20043;-74
2022/05/11 17:07:09;;;;;;;8.40;4.20;;;;;;;26.91;34.78;98805.38;8200615;28;20055;-73
2022/05/11 17:11:11;;;;;;;7.68;5.03;;;;;;;26.71;35.07;98796.97;8200972;28;20055;-74
2022/05/11 17:15:19;;;;;;;8.00;4.40;;;;;;;26.60;35.66;98801.94;8200543;28;20047;-74
2022/05/11 17:19:22;;;;;;;9.52;4.47;;;;;;;26.42;36.32;98803.06;8200696;28;20138;-73
2022/05/11 17:23:23;;;;;;;144.57;8.73;;;;;;;26.30;36.47;98795.34;8200562;28;20056;-74
2022/05/11 17:27:24;;;;;;;11.77;4.57;;;;;;;26.13;37.08;98801.91;8214746;28;20062;-73
2022/05/11 17:31:26;;;;;;;10.43;5.40;;;;;;;25.98;37.42;98803.34;8200527;28;20612;-73
2022/05/11 17:35:27;;;;;;;10.20;4.97;;;;;;;25.85;37.71;98797.63;8200146;28;20051;-74
2022/05/11 17:39:28;;;;;;;8.10;5.00;;;;;;;25.70;38.69;98795.50;8200348;28;20059;-73
2022/05/11 17:43:29;;;;;;;9.40;4.75;;;;;;;25.48;39.70;98801.28;8200490;28;20519;-73
2022/05/11 17:47:31;;;;;;;21.55;5.05;;;;;;;25.39;39.58;98798.22;8225093;28;20051;-75
2022/05/11 17:51:32;;;;;;;13.00;4.82;;;;;;;25.24;40.15;98791.31;8211024;28;20494;-72
2022/05/11 17:55:34;;;;;;;7.55;4.70;;;;;;;25.02;40.90;98801.84;8202967;28;20667;-73
2022/05/11 17:59:35;;;;;;;11.40;5.40;;;;;;;24.83;41.29;98794.94;8201085;28;20047;-72
2022/05/11 18:03:36;;;;;;;15.35;8.35;;;;;;;24.57;41.92;98781.81;8206116;28;20047;-72
2022/05/11 18:07:37;;;;;;;17.77;6.45;;;;;;;24.36;42.30;98793.03;8206025;28;20066;-73
2022/05/11 18:11:38;;;;;;;7.53;5.55;;;;;;;24.23;42.43;98794.72;8205526;28;20067;-72
2022/05/11 18:15:40;;;;;;;11.00;5.80;;;;;;;24.15;42.56;98795.94;8205641;28;20511;-73
2022/05/11 18:19:41;;;;;;;8.13;5.45;;;;;;;24.02;42.95;98789.34;8204455;28;20055;-73
2022/05/11 18:23:42;;;;;;;12.15;5.78;;;;;;;23.90;42.91;98799.66;8202850;28;20066;-72
2022/05/11 18:27:45;;;;;;;10.38;5.38;;;;;;;23.77;43.30;98784.00;8170306;28;20047;-72
2022/05/11 18:31:46;;;;;;;14.05;6.10;;;;;;;23.60;43.54;98791.22;8203074;29;20055;-73
2022/05/11 18:35:48;;;;;;;8.75;6.03;;;;;;;23.40;44.02;98792.88;8201837;28;20062;-71
2022/05/11 18:39:49;;;;;;;16.27;7.38;;;;;;;23.21;44.65;98790.59;8202427;28;20083;-72
2022/05/11 18:43:50;;;;;;;12.93;6.75;;;;;;;23.07;45.00;98786.72;8234739;28;20116;-73
2022/05/11 18:47:51;;;;;;;8.25;6.55;;;;;;;22.95;45.47;98795.41;8236640;28;20051;-73
2022/05/11 18:51:52;;;;;;;20.92;6.90;;;;;;;22.79;46.06;98797.81;8206429;28;20574;-72
2022/05/11 18:55:53;;;;;;;12.45;8.13;;;;;;;22.58;47.05;98798.59;8221905;28;20075;-72
2022/05/11 18:59:55;;;;;;;11.90;8.18;;;;;;;22.42;48.05;98795.50;8207031;28;20145;-72
2022/05/11 19:03:56;;;;;;;18.00;8.73;;;;;;;22.26;48.39;98798.66;8227718;28;20059;-72
2022/05/11 19:07:58;;;;;;;26.13;9.32;;;;;;;22.11;49.17;98796.28;8213380;28;20081;-73
2022/05/11 19:11:59;;;;;;;13.18;9.50;;;;;;;21.95;49.50;98804.91;8204740;28;20058;-71
2022/05/11 19:16:00;;;;;;;23.50;9.35;;;;;;;21.79;50.02;98807.22;8185144;29;20097;-71
2022/05/11 19:20:02;;;;;;;51.97;10.57;;;;;;;21.65;50.53;98812.69;8201796;29;20055;-72
2022/05/11 19:24:03;;;;;;;16.33;8.52;;;;;;;21.56;51.02;98809.56;8203826;28;20071;-74
2022/05/11 19:28:04;;;;;;;22.40;9.15;;;;;;;21.40;51.27;98807.94;8203775;28;20515;-72
2022/05/11 19:32:07;;;;;;;13.88;8.27;;;;;;;21.33;51.07;98807.91;8203256;28;20058;-72
2022/05/11 19:36:11;;;;;;;18.77;10.00;;;;;;;21.24;51.30;98804.75;8227073;28;20055;-72
2022/05/11 19:40:13;;;;;;;16.45;10.05;;;;;;;21.20;51.03;98803.94;8188279;28;20466;-71
2022/05/11 19:44:14;;;;;;;15.27;7.95;;;;;;;21.17;50.66;98810.19;8189450;28;20043;-72
2022/05/11 19:48:16;;;;;;;13.52;6.47;;;;;;;21.19;50.40;98796.88;8145888;29;20051;-72
2022/05/11 19:52:17;;;;;;;12.52;7.88;;;;;;;21.19;50.56;98802.38;8182625;28;20522;-72
2022/05/11 19:56:19;;;;;;;15.30;8.20;;;;;;;21.05;50.97;98796.75;8186447;28;20039;-72